sensor_id;sensor_type;location;lat;lon;timestamp;pressure;altitude;pressure_sealevel;temperature;humidity
12991;BME280;6560;57.692;11.958;2023-03-25T00:01:59;98960.88;;;17.49;100.00
12991;BME280;6560;57.692;11.958;2023-03-25T00:04:24;98888.38;;;17.19;100.00
12991;BME280;6560;57.692;11.958;2023-03-25T00:06:54;98956.97;;;17.77;100.00
12991;BME280;6560;57.692;11.958;2023-03-25T00:09:21;98871.22;;;17.51;100.00
12991;BME280;6560;57.692;11.958;2023-03-25T00:11:49;98954.66;;;17.50;100.00
12991;BME280;6560;57.692;11.958;2023-03-25T00:14:15;98949.41;;;17.55;100.00
12991;BME280;6560;57.692;11.958;2023-03-25T00:16:42;98945.50;;;16.91;100.00
12991;BME280;6560;57.692;11.958;2023-03-25T00:19:07;98946.84;;;17.13;100.00
12991;BME280;6560;57.692;11.958;2023-03-25T00:21:34;98946.25;;;17.29;100.00
12991;BME280;6560;57.692;11.958;2023-03-25T00:24:00;98896.38;;;17.21;100.00
12991;BME280;6560;57.692;11.958;2023-03-25T00:26:26;98868.19;;;16.85;100.00
12991;BME280;6560;57.692;11.958;2023-03-25T00:28:54;98927.66;;;17.31;100.00
12991;BME280;6560;57.692;11.958;2023-03-25T00:31:20;98949.88;;;17.31;100.00
12991;BME280;6560;57.692;11.958;2023-03-25T00:33:45;98890.00;;;17.11;100.00
12991;BME280;6560;57.692;11.958;2023-03-25T00:36:11;98893.88;;;17.30;100.00
12991;BME280;6560;57.692;11.958;2023-03-25T00:38:42;98925.28;;;17.01;100.00
12991;BME280;6560;57.692;11.958;2023-03-25T00:41:11;98892.34;;;17.42;100.00
12991;BME280;6560;57.692;11.958;2023-03-25T00:43:38;98886.66;;;17.23;100.00
12991;BME280;6560;57.692;11.958;2023-03-25T00:46:03;98941.09;;;17.37;100.00
12991;BME280;6560;57.692;11.958;2023-03-25T00:48:29;98919.03;;;17.44;100.00
12991;BME280;6560;57.692;11.958;2023-03-25T00:50:55;98897.28;;;17.21;100.00
12991;BME280;6560;57.692;11.958;2023-03-25T00:53:20;98928.41;;;17.24;100.00
12991;BME280;6560;57.692;11.958;2023-03-25T00:55:46;98930.88;;;17.13;100.00
12991;BME280;6560;57.692;11.958;2023-03-25T00:58:12;98894.44;;;16.68;100.00
12991;BME280;6560;57.692;11.958;2023-03-25T01:00:37;98924.69;;;17.16;100.00
12991;BME280;6560;57.692;11.958;2023-03-25T01:03:03;98919.00;;;17.42;100.00
12991;BME280;6560;57.692;11.958;2023-03-25T01:05:29;98919.94;;;17.46;100.00
12991;BME280;6560;57.692;11.958;2023-03-25T01:07:55;98843.38;;;16.86;100.00
12991;BME280;6560;57.692;11.958;2023-03-25T01:10:21;98829.22;;;16.90;100.00
12991;BME280;6560;57.692;11.958;2023-03-25T01:12:47;98895.69;;;16.86;100.00
12991;BME280;6560;57.692;11.958;2023-03-25T01:15:13;98867.50;;;16.53;100.00
12991;BME280;6560;57.692;11.958;2023-03-25T01:17:39;98933.25;;;17.01;100.00
12991;BME280;6560;57.692;11.958;2023-03-25T01:20:06;98869.94;;;16.85;100.00
12991;BME280;6560;57.692;11.958;2023-03-25T01:22:33;98826.22;;;16.31;100.00
12991;BME280;6560;57.692;11.958;2023-03-25T01:24:59;98828.94;;;16.34;100.00
12991;BME280;6560;57.692;11.958;2023-03-25T01:27:25;98935.78;;;16.93;100.00
12991;BME280;6560;57.692;11.958;2023-03-25T01:29:50;98840.50;;;16.37;100.00
12991;BME280;6560;57.692;11.958;2023-03-25T01:32:16;98921.19;;;16.76;100.00
12991;BME280;6560;57.692;11.958;2023-03-25T01:34:41;98909.78;;;16.80;100.00
12991;BME280;6560;57.692;11.958;2023-03-25T01:37:08;98929.19;;;16.76;100.00
12991;BME280;6560;57.692;11.958;2023-03-25T01:39:34;98935.00;;;16.99;100.00
12991;BME280;6560;57.692;11.958;2023-03-25T01:42:01;98908.88;;;16.41;100.00
12991;BME280;6560;57.692;11.958;2023-03-25T01:46:54;98884.00;;;16.78;100.00
12991;BME280;6560;57.692;11.958;2023-03-25T01:49:31;98914.44;;;16.92;100.00
12991;BME280;6560;57.692;11.958;2023-03-25T01:52:27;98911.16;;;17.05;100.00
12991;BME280;6560;57.692;11.958;2023-03-25T01:54:54;98896.91;;;16.61;100.00
12991;BME280;6560;57.692;11.958;2023-03-25T01:57:22;98931.19;;;16.47;100.00
12991;BME280;6560;57.692;11.958;2023-03-25T01:59:49;98905.25;;;16.76;100.00
12991;BME280;6560;57.692;11.958;2023-03-25T02:02:16;98918.31;;;17.07;100.00
12991;BME280;6560;57.692;11.958;2023-03-25T02:04:51;98907.00;;;17.19;100.00
12991;BME280;6560;57.692;11.958;2023-03-25T02:07:25;98900.41;;;16.99;100.00
12991;BME280;6560;57.692;11.958;2023-03-25T02:09:59;98867.41;;;16.91;100.00
12991;BME280;6560;57.692;11.958;2023-03-25T02:12:26;98898.31;;;16.84;100.00
12991;BME280;6560;57.692;11.958;2023-03-25T02:14:52;98892.91;;;16.80;100.00
12991;BME280;6560;57.692;11.958;2023-03-25T02:17:28;98869.91;;;16.43;100.00
12991;BME280;6560;57.692;11.958;2023-03-25T02:23:04;98878.97;;;16.93;100.00
12991;BME280;6560;57.692;11.958;2023-03-25T02:28:49;98878.75;;;16.82;100.00
12991;BME280;6560;57.692;11.958;2023-03-25T02:40:25;98873.41;;;16.42;100.00
12991;BME280;6560;57.692;11.958;2023-03-25T02:43:00;98879.31;;;17.09;100.00
12991;BME280;6560;57.692;11.958;2023-03-25T02:45:33;98879.72;;;16.87;100.00
12991;BME280;6560;57.692;11.958;2023-03-25T02:48:29;98868.19;;;16.85;100.00
12991;BME280;6560;57.692;11.958;2023-03-25T02:50:58;98872.09;;;17.04;100.00
12991;BME280;6560;57.692;11.958;2023-03-25T02:53:32;98784.81;;;16.88;100.00
12991;BME280;6560;57.692;11.958;2023-03-25T02:56:03;98866.81;;;17.07;100.00
12991;BME280;6560;57.692;11.958;2023-03-25T02:58:33;98859.31;;;17.31;100.00
12991;BME280;6560;57.692;11.958;2023-03-25T03:00:59;98793.19;;;16.62;100.00
12991;BME280;6560;57.692;11.958;2023-03-25T03:03:26;98794.69;;;16.93;100.00
12991;BME280;6560;57.692;11.958;2023-03-25T03:05:55;98816.09;;;16.99;100.00
12991;BME280;6560;57.692;11.958;2023-03-25T03:17:18;98860.47;;;16.99;100.00
12991;BME280;6560;57.692;11.958;2023-03-25T03:30:30;98881.78;;;16.58;100.00
12991;BME280;6560;57.692;11.958;2023-03-25T03:33:17;98871.66;;;16.41;100.00
12991;BME280;6560;57.692;11.958;2023-03-25T03:35:52;98726.94;;;17.26;100.00
12991;BME280;6560;57.692;11.958;2023-03-25T03:38:25;98820.66;;;17.56;100.00
12991;BME280;6560;57.692;11.958;2023-03-25T03:40:55;98815.41;;;18.16;100.00
12991;BME280;6560;57.692;11.958;2023-03-25T03:43:58;98846.78;;;17.77;100.00
12991;BME280;6560;57.692;11.958;2023-03-25T03:46:37;98846.34;;;18.04;100.00
12991;BME280;6560;57.692;11.958;2023-03-25T03:49:09;98858.47;;;17.86;100.00
12991;BME280;6560;57.692;11.958;2023-03-25T03:51:49;98809.38;;;17.71;100.00
12991;BME280;6560;57.692;11.958;2023-03-25T03:54:25;98848.06;;;18.62;100.00
12991;BME280;6560;57.692;11.958;2023-03-25T03:56:56;98837.34;;;18.57;100.00
12991;BME280;6560;57.692;11.958;2023-03-25T03:59:43;98761.63;;;17.86;100.00
12991;BME280;6560;57.692;11.958;2023-03-25T04:02:29;98808.59;;;17.79;100.00
12991;BME280;6560;57.692;11.958;2023-03-25T04:04:59;98845.16;;;19.19;100.00
12991;BME280;6560;57.692;11.958;2023-03-25T04:07:41;98833.53;;;20.18;100.00
12991;BME280;6560;57.692;11.958;2023-03-25T04:10:20;98757.84;;;22.59;100.00
12991;BME280;6560;57.692;11.958;2023-03-25T04:12:51;98783.03;;;21.03;100.00
12991;BME280;6560;57.692;11.958;2023-03-25T04:15:18;98830.16;;;19.33;100.00
12991;BME280;6560;57.692;11.958;2023-03-25T04:17:44;98784.72;;;20.59;100.00
12991;BME280;6560;57.692;11.958;2023-03-25T04:20:13;98826.91;;;19.66;100.00
12991;BME280;6560;57.692;11.958;2023-03-25T04:22:39;98820.28;;;20.35;100.00
12991;BME280;6560;57.692;11.958;2023-03-25T04:25:10;98804.88;;;19.98;100.00
12991;BME280;6560;57.692;11.958;2023-03-25T04:27:36;98817.34;;;19.94;100.00
12991;BME280;6560;57.692;11.958;2023-03-25T04:30:06;98781.44;;;19.63;100.00
12991;BME280;6560;57.692;11.958;2023-03-25T04:32:32;98814.88;;;20.27;100.00
12991;BME280;6560;57.692;11.958;2023-03-25T04:34:59;98798.72;;;23.25;100.00
12991;BME280;6560;57.692;11.958;2023-03-25T04:37:25;98779.56;;;21.36;100.00
12991;BME280;6560;57.692;11.958;2023-03-25T04:39:52;98820.97;;;20.07;100.00
12991;BME280;6560;57.692;11.958;2023-03-25T04:42:24;98821.41;;;18.63;100.00
12991;BME280;6560;57.692;11.958;2023-03-25T04:44:57;98822.06;;;18.52;100.00
12991;BME280;6560;57.692;11.958;2023-03-25T04:47:24;98821.22;;;19.28;100.00
12991;BME280;6560;57.692;11.958;2023-03-25T04:49:50;98793.47;;;20.30;100.00
12991;BME280;6560;57.692;11.958;2023-03-25T04:52:16;98820.81;;;18.22;100.00
12991;BME280;6560;57.692;11.958;2023-03-25T04:54:41;98822.22;;;17.43;100.00
12991;BME280;6560;57.692;11.958;2023-03-25T04:57:09;98795.31;;;17.81;100.00
12991;BME280;6560;57.692;11.958;2023-03-25T04:59:34;98801.66;;;18.54;100.00
12991;BME280;6560;57.692;11.958;2023-03-25T05:02:01;98821.16;;;17.85;100.00
12991;BME280;6560;57.692;11.958;2023-03-25T05:04:27;98812.66;;;18.13;100.00
12991;BME280;6560;57.692;11.958;2023-03-25T05:06:53;98809.94;;;18.09;100.00
12991;BME280;6560;57.692;11.958;2023-03-25T05:09:21;98768.94;;;17.43;100.00
12991;BME280;6560;57.692;11.958;2023-03-25T05:11:47;98749.09;;;17.25;100.00
12991;BME280;6560;57.692;11.958;2023-03-25T05:14:15;98810.19;;;18.27;100.00
12991;BME280;6560;57.692;11.958;2023-03-25T05:16:41;98817.91;;;18.06;100.00
12991;BME280;6560;57.692;11.958;2023-03-25T05:19:07;98794.09;;;18.19;100.00
12991;BME280;6560;57.692;11.958;2023-03-25T05:21:33;98837.16;;;17.35;100.00
12991;BME280;6560;57.692;11.958;2023-03-25T05:24:00;98766.41;;;16.98;100.00
12991;BME280;6560;57.692;11.958;2023-03-25T05:26:27;98830.72;;;17.23;100.00
12991;BME280;6560;57.692;11.958;2023-03-25T05:29:00;98737.06;;;16.50;100.00
12991;BME280;6560;57.692;11.958;2023-03-25T05:31:26;98800.50;;;16.72;100.00
12991;BME280;6560;57.692;11.958;2023-03-25T05:33:52;98805.13;;;17.31;100.00
12991;BME280;6560;57.692;11.958;2023-03-25T05:36:19;98835.25;;;17.28;100.00
12991;BME280;6560;57.692;11.958;2023-03-25T05:38:45;98826.66;;;16.51;100.00
12991;BME280;6560;57.692;11.958;2023-03-25T05:41:14;98827.63;;;16.56;100.00
12991;BME280;6560;57.692;11.958;2023-03-25T05:43:45;98842.00;;;15.85;100.00
12991;BME280;6560;57.692;11.958;2023-03-25T05:46:16;98845.72;;;16.71;100.00
12991;BME280;6560;57.692;11.958;2023-03-25T05:48:42;98837.16;;;16.87;100.00
12991;BME280;6560;57.692;11.958;2023-03-25T05:51:14;98811.69;;;17.51;100.00
12991;BME280;6560;57.692;11.958;2023-03-25T05:53:41;98829.56;;;16.23;100.00
12991;BME280;6560;57.692;11.958;2023-03-25T05:56:08;98868.94;;;16.39;100.00
12991;BME280;6560;57.692;11.958;2023-03-25T05:58:34;98831.75;;;16.83;100.00
12991;BME280;6560;57.692;11.958;2023-03-25T06:01:00;98836.00;;;16.74;100.00
12991;BME280;6560;57.692;11.958;2023-03-25T06:03:27;98867.78;;;16.26;100.00
12991;BME280;6560;57.692;11.958;2023-03-25T06:05:53;98814.41;;;15.09;100.00
12991;BME280;6560;57.692;11.958;2023-03-25T06:08:19;98839.75;;;15.31;100.00
12991;BME280;6560;57.692;11.958;2023-03-25T06:10:54;98827.41;;;16.46;100.00
12991;BME280;6560;57.692;11.958;2023-03-25T06:13:25;98825.69;;;16.09;100.00
12991;BME280;6560;57.692;11.958;2023-03-25T06:15:51;98820.25;;;16.43;100.00
12991;BME280;6560;57.692;11.958;2023-03-25T06:18:22;98855.03;;;16.93;100.00
12991;BME280;6560;57.692;11.958;2023-03-25T06:20:51;98850.19;;;16.33;100.00
12991;BME280;6560;57.692;11.958;2023-03-25T06:23:19;98866.50;;;16.90;100.00
12991;BME280;6560;57.692;11.958;2023-03-25T06:25:48;98852.81;;;17.17;100.00
12991;BME280;6560;57.692;11.958;2023-03-25T06:28:14;98831.59;;;16.34;100.00
12991;BME280;6560;57.692;11.958;2023-03-25T06:30:46;98847.63;;;16.38;100.00
12991;BME280;6560;57.692;11.958;2023-03-25T06:33:12;98789.69;;;16.23;100.00
12991;BME280;6560;57.692;11.958;2023-03-25T06:35:42;98833.50;;;17.29;100.00
12991;BME280;6560;57.692;11.958;2023-03-25T06:38:08;98791.06;;;17.38;100.00
12991;BME280;6560;57.692;11.958;2023-03-25T06:40:37;98839.50;;;17.65;100.00
12991;BME280;6560;57.692;11.958;2023-03-25T06:43:04;98776.25;;;16.17;100.00
12991;BME280;6560;57.692;11.958;2023-03-25T06:45:31;98877.47;;;16.63;100.00
12991;BME280;6560;57.692;11.958;2023-03-25T06:47:57;98820.78;;;15.86;100.00
12991;BME280;6560;57.692;11.958;2023-03-25T06:50:23;98833.34;;;15.93;100.00
12991;BME280;6560;57.692;11.958;2023-03-25T06:52:48;98856.44;;;16.35;100.00
12991;BME280;6560;57.692;11.958;2023-03-25T06:55:14;98847.16;;;16.57;100.00
12991;BME280;6560;57.692;11.958;2023-03-25T06:57:40;98844.50;;;16.16;100.00
12991;BME280;6560;57.692;11.958;2023-03-25T07:00:07;98864.63;;;16.85;100.00
12991;BME280;6560;57.692;11.958;2023-03-25T07:02:33;98884.31;;;16.94;100.00
12991;BME280;6560;57.692;11.958;2023-03-25T07:04:58;98877.84;;;16.41;100.00
12991;BME280;6560;57.692;11.958;2023-03-25T07:07:25;98862.38;;;17.06;100.00
12991;BME280;6560;57.692;11.958;2023-03-25T07:09:51;98861.13;;;16.47;100.00
12991;BME280;6560;57.692;11.958;2023-03-25T07:12:19;98875.78;;;16.67;100.00
12991;BME280;6560;57.692;11.958;2023-03-25T07:14:52;98873.50;;;16.85;100.00
12991;BME280;6560;57.692;11.958;2023-03-25T07:17:19;98879.75;;;17.34;100.00
12991;BME280;6560;57.692;11.958;2023-03-25T07:19:44;98824.84;;;16.92;100.00
12991;BME280;6560;57.692;11.958;2023-03-25T07:22:10;98879.16;;;17.50;100.00
12991;BME280;6560;57.692;11.958;2023-03-25T07:24:35;98858.28;;;16.78;100.00
12991;BME280;6560;57.692;11.958;2023-03-25T07:27:01;98877.06;;;16.87;100.00
12991;BME280;6560;57.692;11.958;2023-03-25T07:29:26;98887.06;;;17.44;100.00
12991;BME280;6560;57.692;11.958;2023-03-25T07:31:52;98831.38;;;18.15;100.00
12991;BME280;6560;57.692;11.958;2023-03-25T07:34:17;98885.34;;;17.97;100.00
12991;BME280;6560;57.692;11.958;2023-03-25T07:36:42;98826.28;;;17.73;100.00
12991;BME280;6560;57.692;11.958;2023-03-25T07:39:08;98838.41;;;18.10;100.00
12991;BME280;6560;57.692;11.958;2023-03-25T07:41:34;98862.34;;;17.54;100.00
12991;BME280;6560;57.692;11.958;2023-03-25T07:43:59;98895.56;;;17.25;100.00
12991;BME280;6560;57.692;11.958;2023-03-25T07:46:25;98828.97;;;16.77;100.00
12991;BME280;6560;57.692;11.958;2023-03-25T07:48:50;98905.72;;;18.52;100.00
12991;BME280;6560;57.692;11.958;2023-03-25T07:51:16;98837.72;;;17.66;100.00
12991;BME280;6560;57.692;11.958;2023-03-25T07:53:41;98829.88;;;17.75;100.00
12991;BME280;6560;57.692;11.958;2023-03-25T07:56:09;98836.56;;;18.67;100.00
12991;BME280;6560;57.692;11.958;2023-03-25T07:58:35;98884.13;;;19.03;100.00
12991;BME280;6560;57.692;11.958;2023-03-25T08:01:09;98879.34;;;18.13;100.00
12991;BME280;6560;57.692;11.958;2023-03-25T08:03:35;98906.19;;;18.86;100.00
12991;BME280;6560;57.692;11.958;2023-03-25T08:06:04;98894.44;;;18.70;100.00
12991;BME280;6560;57.692;11.958;2023-03-25T08:08:31;98885.13;;;18.42;100.00
12991;BME280;6560;57.692;11.958;2023-03-25T08:10:57;98890.28;;;18.95;100.00
12991;BME280;6560;57.692;11.958;2023-03-25T08:13:23;98870.59;;;19.70;100.00
12991;BME280;6560;57.692;11.958;2023-03-25T08:15:49;98858.19;;;19.75;100.00
12991;BME280;6560;57.692;11.958;2023-03-25T08:18:16;98862.75;;;19.00;100.00
12991;BME280;6560;57.692;11.958;2023-03-25T08:20:41;98878.00;;;19.09;100.00
12991;BME280;6560;57.692;11.958;2023-03-25T08:23:07;98858.41;;;19.11;100.00
12991;BME280;6560;57.692;11.958;2023-03-25T08:25:39;98894.09;;;19.15;100.00
12991;BME280;6560;57.692;11.958;2023-03-25T08:28:06;98912.09;;;20.29;100.00
12991;BME280;6560;57.692;11.958;2023-03-25T08:30:32;98838.63;;;19.80;100.00
12991;BME280;6560;57.692;11.958;2023-03-25T08:33:05;98878.91;;;20.00;100.00
12991;BME280;6560;57.692;11.958;2023-03-25T08:35:31;98914.50;;;19.08;100.00
12991;BME280;6560;57.692;11.958;2023-03-25T08:37:57;98917.34;;;19.22;100.00
12991;BME280;6560;57.692;11.958;2023-03-25T08:40:26;98913.53;;;19.85;100.00
12991;BME280;6560;57.692;11.958;2023-03-25T08:42:52;98900.38;;;20.08;100.00
12991;BME280;6560;57.692;11.958;2023-03-25T08:45:18;98865.47;;;19.94;100.00
12991;BME280;6560;57.692;11.958;2023-03-25T08:47:44;98914.16;;;20.68;100.00
12991;BME280;6560;57.692;11.958;2023-03-25T08:50:10;98869.41;;;20.40;100.00
12991;BME280;6560;57.692;11.958;2023-03-25T08:52:36;98858.53;;;20.19;100.00
12991;BME280;6560;57.692;11.958;2023-03-25T08:55:05;98819.00;;;19.80;100.00
12991;BME280;6560;57.692;11.958;2023-03-25T08:57:35;98907.78;;;20.44;100.00
12991;BME280;6560;57.692;11.958;2023-03-25T09:00:03;98901.19;;;19.99;100.00
12991;BME280;6560;57.692;11.958;2023-03-25T09:02:31;98835.97;;;18.94;100.00
12991;BME280;6560;57.692;11.958;2023-03-25T09:04:57;98888.00;;;19.30;100.00
12991;BME280;6560;57.692;11.958;2023-03-25T09:07:22;98929.50;;;19.74;100.00
12991;BME280;6560;57.692;11.958;2023-03-25T09:09:48;98921.38;;;19.62;100.00
12991;BME280;6560;57.692;11.958;2023-03-25T09:12:13;98900.94;;;19.72;100.00
12991;BME280;6560;57.692;11.958;2023-03-25T09:14:39;98895.00;;;19.17;100.00
12991;BME280;6560;57.692;11.958;2023-03-25T09:17:05;98884.19;;;19.06;100.00
12991;BME280;6560;57.692;11.958;2023-03-25T09:19:33;98919.22;;;19.32;100.00
12991;BME280;6560;57.692;11.958;2023-03-25T09:21:59;98934.84;;;19.74;100.00
12991;BME280;6560;57.692;11.958;2023-03-25T09:24:24;98944.50;;;19.63;100.00
12991;BME280;6560;57.692;11.958;2023-03-25T09:26:50;98944.41;;;19.53;100.00
12991;BME280;6560;57.692;11.958;2023-03-25T09:29:16;98825.94;;;18.74;100.00
12991;BME280;6560;57.692;11.958;2023-03-25T09:31:45;98734.72;;;18.34;100.00
12991;BME280;6560;57.692;11.958;2023-03-25T09:34:18;98731.91;;;18.22;100.00
12991;BME280;6560;57.692;11.958;2023-03-25T09:36:47;98681.44;;;17.72;100.00
12991;BME280;6560;57.692;11.958;2023-03-25T09:39:20;98715.00;;;18.21;100.00
12991;BME280;6560;57.692;11.958;2023-03-25T09:45:11;98707.91;;;18.25;100.00
12991;BME280;6560;57.692;11.958;2023-03-25T09:50:35;98968.03;;;19.95;100.00
12991;BME280;6560;57.692;11.958;2023-03-25T09:53:06;98968.13;;;19.25;100.00
12991;BME280;6560;57.692;11.958;2023-03-25T09:55:41;98969.97;;;19.31;100.00
12991;BME280;6560;57.692;11.958;2023-03-25T09:58:24;98977.72;;;19.08;100.00
12991;BME280;6560;57.692;11.958;2023-03-25T10:00:59;98955.22;;;18.89;100.00
12991;BME280;6560;57.692;11.958;2023-03-25T10:04:08;98973.47;;;18.60;100.00
12991;BME280;6560;57.692;11.958;2023-03-25T10:09:43;98974.44;;;18.65;100.00
12991;BME280;6560;57.692;11.958;2023-03-25T10:18:07;98987.53;;;18.50;100.00
12991;BME280;6560;57.692;11.958;2023-03-25T10:21:02;98971.59;;;18.55;100.00
12991;BME280;6560;57.692;11.958;2023-03-25T10:26:24;98984.34;;;19.43;100.00
12991;BME280;6560;57.692;11.958;2023-03-25T10:29:00;98976.69;;;18.98;100.00
12991;BME280;6560;57.692;11.958;2023-03-25T10:31:30;98999.22;;;19.20;100.00
12991;BME280;6560;57.692;11.958;2023-03-25T10:34:01;98993.50;;;18.91;100.00
12991;BME280;6560;57.692;11.958;2023-03-25T10:36:37;98969.16;;;18.68;100.00
12991;BME280;6560;57.692;11.958;2023-03-25T10:39:13;98995.47;;;19.03;100.00
12991;BME280;6560;57.692;11.958;2023-03-25T10:44:30;98953.59;;;19.03;100.00
12991;BME280;6560;57.692;11.958;2023-03-25T10:47:00;98985.47;;;19.59;100.00
12991;BME280;6560;57.692;11.958;2023-03-25T10:49:29;98992.56;;;19.57;100.00
12991;BME280;6560;57.692;11.958;2023-03-25T10:51:57;98990.25;;;19.90;100.00
12991;BME280;6560;57.692;11.958;2023-03-25T10:54:29;98971.69;;;20.06;100.00
12991;BME280;6560;57.692;11.958;2023-03-25T10:57:00;98986.69;;;19.92;100.00
12991;BME280;6560;57.692;11.958;2023-03-25T10:59:36;98988.34;;;19.77;100.00
12991;BME280;6560;57.692;11.958;2023-03-25T11:02:14;98992.00;;;19.85;100.00
12991;BME280;6560;57.692;11.958;2023-03-25T11:04:42;98987.53;;;19.84;100.00
12991;BME280;6560;57.692;11.958;2023-03-25T11:07:20;98954.81;;;20.14;100.00
12991;BME280;6560;57.692;11.958;2023-03-25T11:09:46;98993.81;;;19.89;100.00
12991;BME280;6560;57.692;11.958;2023-03-25T11:12:17;98974.47;;;20.18;100.00
12991;BME280;6560;57.692;11.958;2023-03-25T11:14:43;98945.03;;;20.19;100.00
12991;BME280;6560;57.692;11.958;2023-03-25T11:17:15;98956.09;;;19.64;100.00
12991;BME280;6560;57.692;11.958;2023-03-25T11:19:52;98987.56;;;19.87;100.00
12991;BME280;6560;57.692;11.958;2023-03-25T11:22:28;98999.84;;;18.99;100.00
12991;BME280;6560;57.692;11.958;2023-03-25T11:25:00;98997.03;;;18.89;100.00
12991;BME280;6560;57.692;11.958;2023-03-25T11:27:28;99001.16;;;18.67;100.00
12991;BME280;6560;57.692;11.958;2023-03-25T11:29:59;99003.63;;;19.17;100.00
12991;BME280;6560;57.692;11.958;2023-03-25T11:32:32;99004.94;;;19.47;100.00
12991;BME280;6560;57.692;11.958;2023-03-25T11:35:01;98956.56;;;18.60;100.00
12991;BME280;6560;57.692;11.958;2023-03-25T11:37:36;99005.50;;;19.22;100.00
12991;BME280;6560;57.692;11.958;2023-03-25T11:40:14;98980.16;;;18.93;100.00
12991;BME280;6560;57.692;11.958;2023-03-25T11:42:43;98995.06;;;19.45;100.00
12991;BME280;6560;57.692;11.958;2023-03-25T11:45:32;99015.06;;;19.06;100.00
12991;BME280;6560;57.692;11.958;2023-03-25T11:48:01;99006.88;;;18.93;100.00
12991;BME280;6560;57.692;11.958;2023-03-25T11:50:33;99013.16;;;18.98;100.00
12991;BME280;6560;57.692;11.958;2023-03-25T11:53:00;98998.72;;;18.82;100.00
12991;BME280;6560;57.692;11.958;2023-03-25T11:57:55;98986.91;;;19.31;100.00
12991;BME280;6560;57.692;11.958;2023-03-25T12:00:38;98998.03;;;19.66;100.00
12991;BME280;6560;57.692;11.958;2023-03-25T12:03:16;99014.59;;;20.15;100.00
12991;BME280;6560;57.692;11.958;2023-03-25T12:05:56;99013.56;;;20.01;100.00
12991;BME280;6560;57.692;11.958;2023-03-25T12:08:23;98998.72;;;20.36;100.00
12991;BME280;6560;57.692;11.958;2023-03-25T12:10:59;99007.38;;;20.08;100.00
12991;BME280;6560;57.692;11.958;2023-03-25T12:18:49;99004.81;;;20.23;100.00
12991;BME280;6560;57.692;11.958;2023-03-25T12:21:32;99000.25;;;20.08;100.00
12991;BME280;6560;57.692;11.958;2023-03-25T12:33:11;99003.09;;;20.29;100.00
12991;BME280;6560;57.692;11.958;2023-03-25T12:35:58;99005.91;;;20.43;100.00
12991;BME280;6560;57.692;11.958;2023-03-25T12:44:33;98993.25;;;20.28;100.00
12991;BME280;6560;57.692;11.958;2023-03-25T12:50:36;99002.84;;;20.01;100.00
12991;BME280;6560;57.692;11.958;2023-03-25T13:01:29;99001.28;;;20.28;100.00
12991;BME280;6560;57.692;11.958;2023-03-25T13:12:14;98977.22;;;20.25;100.00
12991;BME280;6560;57.692;11.958;2023-03-25T13:15:14;98997.22;;;19.73;100.00
12991;BME280;6560;57.692;11.958;2023-03-25T13:17:50;99020.63;;;19.22;100.00
12991;BME280;6560;57.692;11.958;2023-03-25T13:20:19;99007.66;;;19.49;100.00
12991;BME280;6560;57.692;11.958;2023-03-25T13:22:49;98999.13;;;19.13;100.00
12991;BME280;6560;57.692;11.958;2023-03-25T13:25:23;98992.66;;;18.94;100.00
12991;BME280;6560;57.692;11.958;2023-03-25T13:27:51;99013.34;;;19.08;100.00
12991;BME280;6560;57.692;11.958;2023-03-25T13:30:29;98917.91;;;18.98;100.00
12991;BME280;6560;57.692;11.958;2023-03-25T13:32:57;98999.47;;;20.21;100.00
12991;BME280;6560;57.692;11.958;2023-03-25T13:38:05;98991.06;;;19.83;100.00
12991;BME280;6560;57.692;11.958;2023-03-25T13:41:09;98991.84;;;19.69;100.00
12991;BME280;6560;57.692;11.958;2023-03-25T13:43:39;99020.34;;;19.70;100.00
12991;BME280;6560;57.692;11.958;2023-03-25T13:46:20;99003.50;;;19.75;100.00
12991;BME280;6560;57.692;11.958;2023-03-25T13:48:55;99012.88;;;20.24;100.00
12991;BME280;6560;57.692;11.958;2023-03-25T13:51:23;98915.09;;;18.86;100.00
12991;BME280;6560;57.692;11.958;2023-03-25T14:01:55;98995.19;;;19.51;100.00
12991;BME280;6560;57.692;11.958;2023-03-25T14:10:12;99020.44;;;18.49;100.00
12991;BME280;6560;57.692;11.958;2023-03-25T14:12:54;98971.19;;;18.86;100.00
12991;BME280;6560;57.692;11.958;2023-03-25T14:15:22;99005.13;;;19.64;100.00
12991;BME280;6560;57.692;11.958;2023-03-25T14:17:51;98954.72;;;19.24;100.00
12991;BME280;6560;57.692;11.958;2023-03-25T14:20:22;99018.09;;;19.32;100.00
12991;BME280;6560;57.692;11.958;2023-03-25T14:22:57;99000.75;;;19.00;100.00
12991;BME280;6560;57.692;11.958;2023-03-25T14:25:37;99022.44;;;19.23;100.00
12991;BME280;6560;57.692;11.958;2023-03-25T14:28:06;98997.66;;;19.36;100.00
12991;BME280;6560;57.692;11.958;2023-03-25T14:30:33;98925.03;;;19.76;100.00
12991;BME280;6560;57.692;11.958;2023-03-25T14:32:59;98979.69;;;19.26;100.00
12991;BME280;6560;57.692;11.958;2023-03-25T14:53:54;99039.13;;;19.76;100.00
12991;BME280;6560;57.692;11.958;2023-03-25T14:56:23;99039.84;;;18.41;100.00
12991;BME280;6560;57.692;11.958;2023-03-25T14:58:56;99071.13;;;17.56;100.00
12991;BME280;6560;57.692;11.958;2023-03-25T15:01:34;99047.50;;;18.70;100.00
12991;BME280;6560;57.692;11.958;2023-03-25T15:04:29;99074.06;;;17.68;100.00
12991;BME280;6560;57.692;11.958;2023-03-25T15:06:57;99068.56;;;18.04;100.00
12991;BME280;6560;57.692;11.958;2023-03-25T15:09:24;99076.84;;;16.92;100.00
12991;BME280;6560;57.692;11.958;2023-03-25T15:11:57;99060.25;;;17.45;100.00
12991;BME280;6560;57.692;11.958;2023-03-25T15:14:27;99069.16;;;17.07;100.00
12991;BME280;6560;57.692;11.958;2023-03-25T15:22:29;99075.31;;;17.43;100.00
12991;BME280;6560;57.692;11.958;2023-03-25T15:24:57;99070.97;;;17.48;100.00
12991;BME280;6560;57.692;11.958;2023-03-25T15:27:30;99072.28;;;17.67;100.00